sensor_id;sensor_type;location;lat;lon;timestamp;noise_LAeq;noise_LA_min;noise_LA_max;noise_LA01;noise_LA95
58197;Laerm;43999;51.660;5.616;2023-09-19T00:00:46;49.52;48.31;51.26;;
58197;Laerm;43999;51.660;5.616;2023-09-19T00:03:35;49.54;48.34;51.50;;
58197;Laerm;43999;51.660;5.616;2023-09-19T00:06:28;49.55;48.43;51.30;;
58197;Laerm;43999;51.660;5.616;2023-09-19T00:09:18;49.53;48.26;51.13;;
58197;Laerm;43999;51.660;5.616;2023-09-19T00:12:07;49.54;48.40;51.30;;
58197;Laerm;43999;51.660;5.616;2023-09-19T00:14:56;49.54;48.13;51.27;;
58197;Laerm;43999;51.660;5.616;2023-09-19T00:17:44;49.52;48.31;51.07;;
58197;Laerm;43999;51.660;5.616;2023-09-19T00:20:32;49.51;48.24;51.41;;
58197;Laerm;43999;51.660;5.616;2023-09-19T00:23:22;49.51;48.13;51.14;;
58197;Laerm;43999;51.660;5.616;2023-09-19T00:26:10;49.51;48.25;51.42;;
58197;Laerm;43999;51.660;5.616;2023-09-19T00:28:59;49.51;48.07;51.23;;
58197;Laerm;43999;51.660;5.616;2023-09-19T00:31:55;49.52;48.23;51.33;;
58197;Laerm;43999;51.660;5.616;2023-09-19T00:34:44;49.53;48.28;51.16;;
58197;Laerm;43999;51.660;5.616;2023-09-19T00:37:32;49.51;48.18;51.33;;
58197;Laerm;43999;51.660;5.616;2023-09-19T00:40:20;49.50;48.25;51.33;;
58197;Laerm;43999;51.660;5.616;2023-09-19T00:43:08;49.53;48.16;51.14;;
58197;Laerm;43999;51.660;5.616;2023-09-19T00:45:56;49.52;48.43;51.22;;
58197;Laerm;43999;51.660;5.616;2023-09-19T00:48:45;49.51;48.28;51.10;;
58197;Laerm;43999;51.660;5.616;2023-09-19T00:51:35;49.50;48.16;51.15;;
58197;Laerm;43999;51.660;5.616;2023-09-19T00:54:23;49.51;48.02;51.49;;
58197;Laerm;43999;51.660;5.616;2023-09-19T00:57:14;49.50;48.12;51.26;;
58197;Laerm;43999;51.660;5.616;2023-09-19T01:00:06;49.49;48.28;51.10;;
58197;Laerm;43999;51.660;5.616;2023-09-19T01:02:55;49.50;48.15;51.30;;
58197;Laerm;43999;51.660;5.616;2023-09-19T01:05:43;49.51;48.28;51.46;;
58197;Laerm;43999;51.660;5.616;2023-09-19T01:08:31;49.49;47.98;51.13;;
58197;Laerm;43999;51.660;5.616;2023-09-19T01:11:40;49.50;47.90;51.07;;
58197;Laerm;43999;51.660;5.616;2023-09-19T01:15:28;49.50;48.12;51.27;;
58197;Laerm;43999;51.660;5.616;2023-09-19T01:22:11;49.50;48.23;51.56;;
58197;Laerm;43999;51.660;5.616;2023-09-19T01:28:45;49.50;48.25;51.29;;
58197;Laerm;43999;51.660;5.616;2023-09-19T01:31:45;49.49;48.34;51.32;;
58197;Laerm;43999;51.660;5.616;2023-09-19T01:34:56;49.50;48.29;51.14;;
58197;Laerm;43999;51.660;5.616;2023-09-19T01:37:46;49.48;48.10;51.20;;
58197;Laerm;43999;51.660;5.616;2023-09-19T01:40:49;49.49;48.31;51.16;;
58197;Laerm;43999;51.660;5.616;2023-09-19T01:43:44;49.49;48.29;51.24;;
58197;Laerm;43999;51.660;5.616;2023-09-19T01:46:41;49.49;47.90;51.26;;
58197;Laerm;43999;51.660;5.616;2023-09-19T01:53:25;49.50;48.13;51.30;;
58197;Laerm;43999;51.660;5.616;2023-09-19T01:56:29;49.49;48.02;51.29;;
58197;Laerm;43999;51.660;5.616;2023-09-19T01:59:36;49.48;48.25;50.87;;
58197;Laerm;43999;51.660;5.616;2023-09-19T02:02:25;49.48;48.20;51.22;;
58197;Laerm;43999;51.660;5.616;2023-09-19T02:05:23;49.49;48.18;51.00;;
58197;Laerm;43999;51.660;5.616;2023-09-19T02:08:22;49.49;48.18;51.13;;
58197;Laerm;43999;51.660;5.616;2023-09-19T02:11:13;49.48;48.28;50.97;;
58197;Laerm;43999;51.660;5.616;2023-09-19T02:14:01;49.48;48.28;51.14;;
58197;Laerm;43999;51.660;5.616;2023-09-19T02:16:50;49.47;48.12;51.13;;
58197;Laerm;43999;51.660;5.616;2023-09-19T02:19:39;49.48;48.32;51.24;;
58197;Laerm;43999;51.660;5.616;2023-09-19T02:22:28;49.47;48.08;51.12;;
58197;Laerm;43999;51.660;5.616;2023-09-19T02:25:17;49.47;48.13;51.60;;
58197;Laerm;43999;51.660;5.616;2023-09-19T02:28:05;49.48;48.23;51.13;;
58197;Laerm;43999;51.660;5.616;2023-09-19T02:30:53;49.47;48.23;51.18;;
58197;Laerm;43999;51.660;5.616;2023-09-19T02:33:40;49.48;48.16;51.15;;
58197;Laerm;43999;51.660;5.616;2023-09-19T02:36:29;49.47;48.16;51.47;;
58197;Laerm;43999;51.660;5.616;2023-09-19T02:39:18;49.46;48.31;51.53;;
58197;Laerm;43999;51.660;5.616;2023-09-19T02:42:06;49.46;48.02;51.16;;
58197;Laerm;43999;51.660;5.616;2023-09-19T02:44:54;49.46;48.13;51.22;;
58197;Laerm;43999;51.660;5.616;2023-09-19T02:47:42;49.47;48.15;51.12;;
58197;Laerm;43999;51.660;5.616;2023-09-19T02:50:30;49.48;48.23;51.33;;
58197;Laerm;43999;51.660;5.616;2023-09-19T02:53:20;49.48;48.29;51.12;;
58197;Laerm;43999;51.660;5.616;2023-09-19T02:56:08;49.46;48.15;51.13;;
58197;Laerm;43999;51.660;5.616;2023-09-19T02:58:57;49.47;47.90;51.08;;
58197;Laerm;43999;51.660;5.616;2023-09-19T03:01:45;49.47;48.23;51.41;;
58197;Laerm;43999;51.660;5.616;2023-09-19T03:04:35;49.46;48.18;51.17;;
58197;Laerm;43999;51.660;5.616;2023-09-19T03:07:24;49.47;48.13;51.26;;
58197;Laerm;43999;51.660;5.616;2023-09-19T03:10:13;49.46;48.15;50.98;;
58197;Laerm;43999;51.660;5.616;2023-09-19T03:13:03;49.46;48.18;51.43;;
58197;Laerm;43999;51.660;5.616;2023-09-19T03:15:54;49.46;48.15;51.47;;
58197;Laerm;43999;51.660;5.616;2023-09-19T03:18:48;49.46;48.08;51.22;;
58197;Laerm;43999;51.660;5.616;2023-09-19T03:21:37;49.44;48.20;51.23;;
58197;Laerm;43999;51.660;5.616;2023-09-19T03:24:26;49.46;48.08;51.03;;
58197;Laerm;43999;51.660;5.616;2023-09-19T03:27:14;49.45;48.28;51.37;;
58197;Laerm;43999;51.660;5.616;2023-09-19T03:30:05;49.46;48.12;51.13;;
58197;Laerm;43999;51.660;5.616;2023-09-19T03:32:56;49.45;48.21;51.29;;
58197;Laerm;43999;51.660;5.616;2023-09-19T03:35:55;49.46;48.29;51.51;;
58197;Laerm;43999;51.660;5.616;2023-09-19T03:38:43;49.46;48.20;51.40;;
58197;Laerm;43999;51.660;5.616;2023-09-19T03:41:32;49.45;48.29;50.96;;
58197;Laerm;43999;51.660;5.616;2023-09-19T03:44:21;49.46;48.26;51.48;;
58197;Laerm;43999;51.660;5.616;2023-09-19T03:47:10;49.45;48.25;51.03;;
58197;Laerm;43999;51.660;5.616;2023-09-19T03:49:59;49.46;48.29;51.19;;
58197;Laerm;43999;51.660;5.616;2023-09-19T03:52:47;49.46;48.13;51.18;;
58197;Laerm;43999;51.660;5.616;2023-09-19T03:55:35;49.46;48.08;51.50;;
58197;Laerm;43999;51.660;5.616;2023-09-19T03:58:24;49.46;48.03;51.09;;
58197;Laerm;43999;51.660;5.616;2023-09-19T04:01:12;49.45;48.10;51.49;;
58197;Laerm;43999;51.660;5.616;2023-09-19T04:04:01;49.47;48.32;51.34;;
58197;Laerm;43999;51.660;5.616;2023-09-19T04:06:56;49.45;48.31;51.26;;
58197;Laerm;43999;51.660;5.616;2023-09-19T04:09:45;49.45;48.21;51.38;;
58197;Laerm;43999;51.660;5.616;2023-09-19T04:12:33;49.45;48.16;51.18;;
58197;Laerm;43999;51.660;5.616;2023-09-19T04:15:21;49.45;48.18;51.32;;
58197;Laerm;43999;51.660;5.616;2023-09-19T04:18:15;49.46;48.15;51.07;;
58197;Laerm;43999;51.660;5.616;2023-09-19T04:21:03;49.47;48.26;51.31;;
58197;Laerm;43999;51.660;5.616;2023-09-19T04:23:51;49.46;48.16;51.41;;
58197;Laerm;43999;51.660;5.616;2023-09-19T04:26:39;49.46;48.28;51.50;;
58197;Laerm;43999;51.660;5.616;2023-09-19T04:29:27;49.46;47.91;51.15;;
58197;Laerm;43999;51.660;5.616;2023-09-19T04:32:16;49.45;48.21;51.81;;
58197;Laerm;43999;51.660;5.616;2023-09-19T04:35:10;49.47;48.02;51.22;;
58197;Laerm;43999;51.660;5.616;2023-09-19T04:37:58;49.46;48.18;51.13;;
58197;Laerm;43999;51.660;5.616;2023-09-19T04:40:47;49.45;48.16;51.37;;
58197;Laerm;43999;51.660;5.616;2023-09-19T04:43:35;49.47;47.95;51.53;;
58197;Laerm;43999;51.660;5.616;2023-09-19T04:46:23;49.45;48.23;51.22;;
58197;Laerm;43999;51.660;5.616;2023-09-19T04:49:10;49.46;48.21;51.13;;
58197;Laerm;43999;51.660;5.616;2023-09-19T04:51:58;49.46;48.25;51.27;;
58197;Laerm;43999;51.660;5.616;2023-09-19T04:54:46;49.47;48.26;50.91;;
58197;Laerm;43999;51.660;5.616;2023-09-19T04:57:42;49.46;48.10;51.12;;
58197;Laerm;43999;51.660;5.616;2023-09-19T05:00:30;49.46;48.00;52.29;;
58197;Laerm;43999;51.660;5.616;2023-09-19T05:03:23;49.46;48.31;51.44;;
58197;Laerm;43999;51.660;5.616;2023-09-19T05:06:11;49.46;48.25;51.36;;
58197;Laerm;43999;51.660;5.616;2023-09-19T05:08:58;49.45;47.98;51.41;;
58197;Laerm;43999;51.660;5.616;2023-09-19T05:11:47;49.45;48.03;51.32;;
58197;Laerm;43999;51.660;5.616;2023-09-19T05:14:35;49.47;48.13;51.23;;
58197;Laerm;43999;51.660;5.616;2023-09-19T05:17:23;49.46;47.96;51.30;;
58197;Laerm;43999;51.660;5.616;2023-09-19T05:20:12;49.48;48.23;51.33;;
58197;Laerm;43999;51.660;5.616;2023-09-19T05:23:11;49.48;48.16;51.16;;
58197;Laerm;43999;51.660;5.616;2023-09-19T05:25:59;49.46;48.23;52.07;;
58197;Laerm;43999;51.660;5.616;2023-09-19T05:28:47;49.46;48.20;51.31;;
58197;Laerm;43999;51.660;5.616;2023-09-19T05:31:38;49.46;48.26;51.40;;
58197;Laerm;43999;51.660;5.616;2023-09-19T05:34:28;49.48;48.25;51.00;;
58197;Laerm;43999;51.660;5.616;2023-09-19T05:37:17;49.47;48.16;51.16;;
58197;Laerm;43999;51.660;5.616;2023-09-19T05:40:06;49.46;48.31;51.34;;
58197;Laerm;43999;51.660;5.616;2023-09-19T05:42:57;49.47;48.15;51.26;;
58197;Laerm;43999;51.660;5.616;2023-09-19T05:45:45;49.47;47.98;51.58;;
58197;Laerm;43999;51.660;5.616;2023-09-19T05:48:33;49.46;48.20;50.89;;
58197;Laerm;43999;51.660;5.616;2023-09-19T05:51:20;49.46;48.18;51.22;;
58197;Laerm;43999;51.660;5.616;2023-09-19T05:54:09;49.46;48.21;51.12;;
58197;Laerm;43999;51.660;5.616;2023-09-19T05:56:58;49.47;48.08;51.26;;
58197;Laerm;43999;51.660;5.616;2023-09-19T05:59:46;49.47;48.26;51.04;;
58197;Laerm;43999;51.660;5.616;2023-09-19T06:02:39;49.48;48.10;51.43;;
58197;Laerm;43999;51.660;5.616;2023-09-19T06:05:30;49.47;48.08;51.32;;
58197;Laerm;43999;51.660;5.616;2023-09-19T06:08:19;49.47;48.23;51.26;;
58197;Laerm;43999;51.660;5.616;2023-09-19T06:11:06;49.47;48.03;51.22;;
58197;Laerm;43999;51.660;5.616;2023-09-19T06:13:54;49.47;47.95;50.93;;
58197;Laerm;43999;51.660;5.616;2023-09-19T06:16:42;49.46;48.07;51.02;;
58197;Laerm;43999;51.660;5.616;2023-09-19T06:19:31;49.47;48.23;51.26;;
58197;Laerm;43999;51.660;5.616;2023-09-19T06:22:19;49.48;47.88;51.15;;
58197;Laerm;43999;51.660;5.616;2023-09-19T06:25:08;49.47;48.10;51.03;;
58197;Laerm;43999;51.660;5.616;2023-09-19T06:27:58;49.47;48.02;51.21;;
58197;Laerm;43999;51.660;5.616;2023-09-19T06:30:46;49.48;48.18;51.03;;
58197;Laerm;43999;51.660;5.616;2023-09-19T06:33:38;49.47;47.77;51.18;;
58197;Laerm;43999;51.660;5.616;2023-09-19T06:36:28;49.47;48.26;51.03;;
58197;Laerm;43999;51.660;5.616;2023-09-19T06:39:16;49.47;48.21;51.08;;
58197;Laerm;43999;51.660;5.616;2023-09-19T06:42:04;49.48;48.07;51.08;;
58197;Laerm;43999;51.660;5.616;2023-09-19T06:44:52;49.47;48.08;51.17;;
58197;Laerm;43999;51.660;5.616;2023-09-19T06:47:40;49.48;48.16;50.91;;
58197;Laerm;43999;51.660;5.616;2023-09-19T06:50:28;49.47;48.18;51.09;;
58197;Laerm;43999;51.660;5.616;2023-09-19T06:53:18;49.47;48.05;51.26;;
58197;Laerm;43999;51.660;5.616;2023-09-19T06:56:07;49.48;48.23;51.24;;
58197;Laerm;43999;51.660;5.616;2023-09-19T06:58:55;49.48;48.03;51.62;;
58197;Laerm;43999;51.660;5.616;2023-09-19T07:01:43;49.49;48.28;51.18;;
58197;Laerm;43999;51.660;5.616;2023-09-19T07:04:32;49.48;48.16;51.17;;
58197;Laerm;43999;51.660;5.616;2023-09-19T07:07:20;49.47;48.26;51.08;;
58197;Laerm;43999;51.660;5.616;2023-09-19T07:10:09;49.47;48.21;51.23;;
58197;Laerm;43999;51.660;5.616;2023-09-19T07:13:07;49.49;48.03;51.11;;
58197;Laerm;43999;51.660;5.616;2023-09-19T07:16:01;49.47;48.26;51.36;;
58197;Laerm;43999;51.660;5.616;2023-09-19T07:18:49;49.49;48.21;51.26;;
58197;Laerm;43999;51.660;5.616;2023-09-19T07:21:37;49.49;47.91;51.33;;
58197;Laerm;43999;51.660;5.616;2023-09-19T07:24:26;49.49;48.16;51.17;;
58197;Laerm;43999;51.660;5.616;2023-09-19T07:27:15;49.48;48.26;51.08;;
58197;Laerm;43999;51.660;5.616;2023-09-19T07:30:04;49.48;48.32;51.29;;
58197;Laerm;43999;51.660;5.616;2023-09-19T07:32:54;49.50;48.28;51.19;;
58197;Laerm;43999;51.660;5.616;2023-09-19T07:35:48;49.50;48.23;51.25;;
58197;Laerm;43999;51.660;5.616;2023-09-19T07:38:36;49.50;48.28;51.33;;
58197;Laerm;43999;51.660;5.616;2023-09-19T07:41:24;49.49;48.05;51.18;;
58197;Laerm;43999;51.660;5.616;2023-09-19T07:44:13;49.50;48.10;51.59;;
58197;Laerm;43999;51.660;5.616;2023-09-19T07:47:00;49.51;48.13;51.21;;
58197;Laerm;43999;51.660;5.616;2023-09-19T07:49:50;49.51;48.31;51.25;;
58197;Laerm;43999;51.660;5.616;2023-09-19T07:52:38;49.51;48.13;51.32;;
58197;Laerm;43999;51.660;5.616;2023-09-19T07:55:26;49.52;48.10;51.77;;
58197;Laerm;43999;51.660;5.616;2023-09-19T07:58:14;49.52;48.28;51.30;;
58197;Laerm;43999;51.660;5.616;2023-09-19T08:01:09;49.51;48.37;51.13;;
58197;Laerm;43999;51.660;5.616;2023-09-19T08:03:57;49.52;48.21;51.22;;
58197;Laerm;43999;51.660;5.616;2023-09-19T08:06:46;49.50;48.05;51.05;;
58197;Laerm;43999;51.660;5.616;2023-09-19T08:09:34;49.54;48.29;51.17;;
58197;Laerm;43999;51.660;5.616;2023-09-19T08:12:21;49.50;48.31;51.11;;
58197;Laerm;43999;51.660;5.616;2023-09-19T08:15:10;49.52;48.26;50.99;;
58197;Laerm;43999;51.660;5.616;2023-09-19T08:17:58;49.53;48.25;51.45;;
58197;Laerm;43999;51.660;5.616;2023-09-19T08:20:53;49.52;48.03;51.40;;
58197;Laerm;43999;51.660;5.616;2023-09-19T08:23:41;49.54;48.18;51.07;;
58197;Laerm;43999;51.660;5.616;2023-09-19T08:26:29;49.53;48.36;51.21;;
58197;Laerm;43999;51.660;5.616;2023-09-19T08:29:22;49.54;48.36;51.09;;
58197;Laerm;43999;51.660;5.616;2023-09-19T08:32:17;49.54;48.21;51.41;;
58197;Laerm;43999;51.660;5.616;2023-09-19T08:35:07;49.55;48.34;51.23;;
58197;Laerm;43999;51.660;5.616;2023-09-19T08:37:56;49.54;48.36;51.33;;
58197;Laerm;43999;51.660;5.616;2023-09-19T08:40:45;49.54;48.28;51.32;;
58197;Laerm;43999;51.660;5.616;2023-09-19T08:43:35;49.55;48.39;51.57;;
58197;Laerm;43999;51.660;5.616;2023-09-19T08:46:30;49.56;48.02;51.26;;
58197;Laerm;43999;51.660;5.616;2023-09-19T08:52:43;49.55;47.86;51.59;;
58197;Laerm;43999;51.660;5.616;2023-09-19T08:55:36;49.55;48.34;51.11;;
58197;Laerm;43999;51.660;5.616;2023-09-19T08:58:35;49.55;48.34;51.22;;
58197;Laerm;43999;51.660;5.616;2023-09-19T09:01:31;49.56;48.23;51.15;;
58197;Laerm;43999;51.660;5.616;2023-09-19T09:04:26;49.56;48.25;51.30;;
58197;Laerm;43999;51.660;5.616;2023-09-19T09:07:17;49.57;48.26;51.17;;
58197;Laerm;43999;51.660;5.616;2023-09-19T09:10:07;49.55;48.37;51.35;;
58197;Laerm;43999;51.660;5.616;2023-09-19T09:12:55;49.56;48.29;51.41;;
58197;Laerm;43999;51.660;5.616;2023-09-19T09:15:48;49.58;48.34;51.05;;
58197;Laerm;43999;51.660;5.616;2023-09-19T09:18:38;49.58;48.07;51.42;;
58197;Laerm;43999;51.660;5.616;2023-09-19T09:21:26;49.56;48.34;51.64;;
58197;Laerm;43999;51.660;5.616;2023-09-19T09:24:31;49.57;48.34;51.27;;
58197;Laerm;43999;51.660;5.616;2023-09-19T09:27:27;49.57;48.28;51.13;;
58197;Laerm;43999;51.660;5.616;2023-09-19T09:30:37;49.57;48.32;51.20;;
58197;Laerm;43999;51.660;5.616;2023-09-19T09:33:26;49.57;48.25;51.33;;
58197;Laerm;43999;51.660;5.616;2023-09-19T09:36:14;49.57;48.26;51.24;;
58197;Laerm;43999;51.660;5.616;2023-09-19T09:39:02;49.59;48.23;51.21;;
58197;Laerm;43999;51.660;5.616;2023-09-19T09:42:04;49.58;48.21;51.29;;
58197;Laerm;43999;51.660;5.616;2023-09-19T09:45:24;49.59;48.42;51.33;;
58197;Laerm;43999;51.660;5.616;2023-09-19T09:48:38;49.59;48.26;51.49;;
58197;Laerm;43999;51.660;5.616;2023-09-19T09:51:30;49.59;48.32;51.35;;
58197;Laerm;43999;51.660;5.616;2023-09-19T09:54:18;49.59;48.43;51.19;;
58197;Laerm;43999;51.660;5.616;2023-09-19T09:57:10;49.59;48.43;51.34;;
58197;Laerm;43999;51.660;5.616;2023-09-19T10:00:05;49.60;48.28;51.29;;
58197;Laerm;43999;51.660;5.616;2023-09-19T10:02:58;49.61;48.13;51.45;;
58197;Laerm;43999;51.660;5.616;2023-09-19T10:05:53;49.62;48.21;51.30;;
58197;Laerm;43999;51.660;5.616;2023-09-19T10:09:08;49.61;48.05;51.47;;
58197;Laerm;43999;51.660;5.616;2023-09-19T10:12:12;49.61;48.16;51.34;;
58197;Laerm;43999;51.660;5.616;2023-09-19T10:15:03;49.62;48.43;51.26;;
58197;Laerm;43999;51.660;5.616;2023-09-19T10:17:54;49.61;48.29;51.41;;
58197;Laerm;43999;51.660;5.616;2023-09-19T10:20:45;49.62;48.39;51.39;;
58197;Laerm;43999;51.660;5.616;2023-09-19T10:23:34;49.62;48.42;51.22;;
58197;Laerm;43999;51.660;5.616;2023-09-19T10:26:27;49.62;48.29;51.50;;
58197;Laerm;43999;51.660;5.616;2023-09-19T10:29:19;49.62;48.31;51.19;;
58197;Laerm;43999;51.660;5.616;2023-09-19T10:32:09;49.62;48.40;51.05;;
58197;Laerm;43999;51.660;5.616;2023-09-19T10:34:58;49.64;48.18;51.32;;
58197;Laerm;43999;51.660;5.616;2023-09-19T10:37:51;49.63;48.40;51.29;;
58197;Laerm;43999;51.660;5.616;2023-09-19T10:40:42;49.66;48.34;51.47;;
58197;Laerm;43999;51.660;5.616;2023-09-19T10:43:33;49.64;48.37;51.35;;
58197;Laerm;43999;51.660;5.616;2023-09-19T10:46:23;49.64;48.23;51.26;;
58197;Laerm;43999;51.660;5.616;2023-09-19T10:49:13;49.64;48.42;51.56;;
58197;Laerm;43999;51.660;5.616;2023-09-19T10:52:02;49.66;48.34;51.18;;
58197;Laerm;43999;51.660;5.616;2023-09-19T10:54:53;49.66;48.40;51.32;;
58197;Laerm;43999;51.660;5.616;2023-09-19T10:57:46;49.65;48.39;51.26;;
58197;Laerm;43999;51.660;5.616;2023-09-19T11:00:55;49.65;48.40;51.84;;
58197;Laerm;43999;51.660;5.616;2023-09-19T11:03:44;49.64;48.48;51.52;;
58197;Laerm;43999;51.660;5.616;2023-09-19T11:06:32;49.66;48.37;51.60;;
58197;Laerm;43999;51.660;5.616;2023-09-19T11:09:21;49.66;48.38;51.17;;
58197;Laerm;43999;51.660;5.616;2023-09-19T11:16:04;49.66;48.39;51.50;;
58197;Laerm;43999;51.660;5.616;2023-09-19T11:18:52;49.67;48.29;51.43;;
58197;Laerm;43999;51.660;5.616;2023-09-19T11:21:41;49.67;48.26;51.36;;
58197;Laerm;43999;51.660;5.616;2023-09-19T11:24:30;49.66;48.29;51.09;;
58197;Laerm;43999;51.660;5.616;2023-09-19T11:27:18;49.67;48.44;51.53;;
58197;Laerm;43999;51.660;5.616;2023-09-19T11:30:27;49.68;48.25;51.21;;
58197;Laerm;43999;51.660;5.616;2023-09-19T11:33:29;49.69;48.20;52.04;;
58197;Laerm;43999;51.660;5.616;2023-09-19T11:36:35;49.69;48.32;51.56;;
58197;Laerm;43999;51.660;5.616;2023-09-19T11:39:27;49.67;48.40;51.53;;
58197;Laerm;43999;51.660;5.616;2023-09-19T11:42:44;49.69;48.37;51.23;;
58197;Laerm;43999;51.660;5.616;2023-09-19T11:48:47;49.68;48.42;51.27;;
58197;Laerm;43999;51.660;5.616;2023-09-19T11:51:42;49.70;48.49;51.47;;
58197;Laerm;43999;51.660;5.616;2023-09-19T11:54:36;49.69;48.45;51.30;;
58197;Laerm;43999;51.660;5.616;2023-09-19T11:57:30;49.70;48.46;51.70;;
58197;Laerm;43999;51.660;5.616;2023-09-19T12:00:19;49.70;48.40;51.24;;
58197;Laerm;43999;51.660;5.616;2023-09-19T12:03:11;49.70;48.36;51.47;;
58197;Laerm;43999;51.660;5.616;2023-09-19T12:06:00;49.70;48.36;51.29;;
58197;Laerm;43999;51.660;5.616;2023-09-19T12:08:51;49.68;48.40;51.27;;
58197;Laerm;43999;51.660;5.616;2023-09-19T12:11:43;49.69;48.29;51.22;;
58197;Laerm;43999;51.660;5.616;2023-09-19T12:14:33;49.69;48.49;51.38;;
58197;Laerm;43999;51.660;5.616;2023-09-19T12:17:22;49.70;48.32;51.47;;
58197;Laerm;43999;51.660;5.616;2023-09-19T12:20:11;49.70;48.46;51.35;;
58197;Laerm;43999;51.660;5.616;2023-09-19T12:23:14;49.70;48.43;51.46;;
58197;Laerm;43999;51.660;5.616;2023-09-19T12:26:03;49.71;48.49;51.68;;
58197;Laerm;43999;51.660;5.616;2023-09-19T12:29:00;49.71;48.51;51.11;;
58197;Laerm;43999;51.660;5.616;2023-09-19T12:32:00;49.69;48.39;51.32;;
58197;Laerm;43999;51.660;5.616;2023-09-19T12:34:52;49.70;48.28;51.17;;
58197;Laerm;43999;51.660;5.616;2023-09-19T12:37:45;49.68;48.51;51.28;;
58197;Laerm;43999;51.660;5.616;2023-09-19T12:40:40;49.69;48.36;51.48;;
58197;Laerm;43999;51.660;5.616;2023-09-19T12:43:31;49.68;48.48;51.40;;
58197;Laerm;43999;51.660;5.616;2023-09-19T12:46:24;49.69;48.16;51.30;;
58197;Laerm;43999;51.660;5.616;2023-09-19T12:49:20;49.68;48.42;51.18;;
58197;Laerm;43999;51.660;5.616;2023-09-19T12:52:08;49.69;48.37;51.53;;
58197;Laerm;43999;51.660;5.616;2023-09-19T12:54:57;49.68;48.26;51.17;;
58197;Laerm;43999;51.660;5.616;2023-09-19T13:00:53;49.69;48.25;51.70;;
58197;Laerm;43999;51.660;5.616;2023-09-19T13:03:43;49.69;48.46;51.75;;
58197;Laerm;43999;51.660;5.616;2023-09-19T13:06:38;49.69;48.29;51.48;;
58197;Laerm;43999;51.660;5.616;2023-09-19T13:09:28;49.70;48.29;51.30;;
58197;Laerm;43999;51.660;5.616;2023-09-19T13:12:37;49.69;48.43;51.50;;
58197;Laerm;43999;51.660;5.616;2023-09-19T13:15:27;49.69;48.51;51.34;;
58197;Laerm;43999;51.660;5.616;2023-09-19T13:18:17;49.71;48.39;51.17;;
58197;Laerm;43999;51.660;5.616;2023-09-19T13:21:11;49.69;48.37;51.36;;
58197;Laerm;43999;51.660;5.616;2023-09-19T13:24:25;49.68;48.32;51.16;;
58197;Laerm;43999;51.660;5.616;2023-09-19T13:27:17;49.69;48.34;51.18;;
58197;Laerm;43999;51.660;5.616;2023-09-19T13:30:07;49.69;48.37;51.33;;
58197;Laerm;43999;51.660;5.616;2023-09-19T13:33:11;49.71;48.40;51.32;;
58197;Laerm;43999;51.660;5.616;2023-09-19T13:36:01;49.69;48.38;51.64;;
58197;Laerm;43999;51.660;5.616;2023-09-19T13:38:50;49.70;48.25;51.43;;
58197;Laerm;43999;51.660;5.616;2023-09-19T13:41:37;49.68;48.34;51.26;;
58197;Laerm;43999;51.660;5.616;2023-09-19T13:44:25;49.69;48.32;51.82;;
58197;Laerm;43999;51.660;5.616;2023-09-19T13:47:17;49.69;48.45;51.21;;
58197;Laerm;43999;51.660;5.616;2023-09-19T13:50:13;49.68;48.32;51.39;;
58197;Laerm;43999;51.660;5.616;2023-09-19T13:53:02;49.69;48.36;51.49;;
58197;Laerm;43999;51.660;5.616;2023-09-19T13:55:51;49.70;48.49;51.30;;
58197;Laerm;43999;51.660;5.616;2023-09-19T13:58:39;49.69;48.34;51.61;;
58197;Laerm;43999;51.660;5.616;2023-09-19T14:01:27;49.68;48.34;51.26;;
58197;Laerm;43999;51.660;5.616;2023-09-19T14:04:17;49.71;48.48;51.48;;
58197;Laerm;43999;51.660;5.616;2023-09-19T14:07:19;49.70;48.25;51.38;;
58197;Laerm;43999;51.660;5.616;2023-09-19T14:10:10;49.71;48.48;51.37;;
58197;Laerm;43999;51.660;5.616;2023-09-19T14:13:01;49.70;48.39;51.38;;
58197;Laerm;43999;51.660;5.616;2023-09-19T14:16:07;49.69;48.45;51.25;;
58197;Laerm;43999;51.660;5.616;2023-09-19T14:18:57;49.70;48.44;51.32;;
58197;Laerm;43999;51.660;5.616;2023-09-19T14:21:47;49.68;48.12;51.30;;
58197;Laerm;43999;51.660;5.616;2023-09-19T14:24:35;49.69;48.21;51.62;;
58197;Laerm;43999;51.660;5.616;2023-09-19T14:27:26;49.69;48.26;51.37;;
58197;Laerm;43999;51.660;5.616;2023-09-19T14:30:14;49.68;48.32;51.47;;
58197;Laerm;43999;51.660;5.616;2023-09-19T14:33:04;49.68;48.23;51.54;;
58197;Laerm;43999;51.660;5.616;2023-09-19T14:35:54;49.68;48.39;51.13;;
58197;Laerm;43999;51.660;5.616;2023-09-19T14:38:42;49.69;48.29;51.52;;
58197;Laerm;43999;51.660;5.616;2023-09-19T14:41:30;49.68;48.36;51.38;;
58197;Laerm;43999;51.660;5.616;2023-09-19T14:44:19;49.69;48.49;51.15;;
58197;Laerm;43999;51.660;5.616;2023-09-19T14:47:07;49.69;48.39;51.03;;
58197;Laerm;43999;51.660;5.616;2023-09-19T14:49:55;49.68;48.36;52.05;;
58197;Laerm;43999;51.660;5.616;2023-09-19T14:52:43;49.69;48.34;51.81;;
58197;Laerm;43999;51.660;5.616;2023-09-19T14:55:31;49.69;48.31;51.37;;
58197;Laerm;43999;51.660;5.616;2023-09-19T14:58:23;49.69;48.46;51.23;;
58197;Laerm;43999;51.660;5.616;2023-09-19T15:01:14;49.69;48.39;51.26;;
58197;Laerm;43999;51.660;5.616;2023-09-19T15:04:02;49.69;48.42;51.50;;
58197;Laerm;43999;51.660;5.616;2023-09-19T15:06:50;49.70;48.28;51.44;;
58197;Laerm;43999;51.660;5.616;2023-09-19T15:09:42;49.68;48.23;51.59;;
58197;Laerm;43999;51.660;5.616;2023-09-19T15:12:31;49.68;48.37;51.27;;
58197;Laerm;43999;51.660;5.616;2023-09-19T15:15:18;49.67;48.15;51.20;;
58197;Laerm;43999;51.660;5.616;2023-09-19T15:18:06;49.67;48.43;51.38;;
58197;Laerm;43999;51.660;5.616;2023-09-19T15:20:55;49.67;48.37;51.28;;
58197;Laerm;43999;51.660;5.616;2023-09-19T15:23:43;49.68;48.10;51.27;;
58197;Laerm;43999;51.660;5.616;2023-09-19T15:26:31;49.69;48.26;51.54;;
58197;Laerm;43999;51.660;5.616;2023-09-19T15:29:19;49.68;48.39;51.17;;
58197;Laerm;43999;51.660;5.616;2023-09-19T15:32:07;49.69;48.40;51.50;;
58197;Laerm;43999;51.660;5.616;2023-09-19T15:34:57;49.70;48.45;51.54;;
58197;Laerm;43999;51.660;5.616;2023-09-19T15:37:45;49.69;48.51;51.38;;
58197;Laerm;43999;51.660;5.616;2023-09-19T15:40:34;49.71;48.45;51.43;;
58197;Laerm;43999;51.660;5.616;2023-09-19T15:43:21;49.69;48.42;51.22;;
58197;Laerm;43999;51.660;5.616;2023-09-19T15:46:09;49.69;48.29;51.58;;
58197;Laerm;43999;51.660;5.616;2023-09-19T15:48:58;49.68;48.43;51.22;;
58197;Laerm;43999;51.660;5.616;2023-09-19T15:51:46;49.69;48.43;51.52;;
58197;Laerm;43999;51.660;5.616;2023-09-19T15:54:34;49.69;48.31;51.49;;
58197;Laerm;43999;51.660;5.616;2023-09-19T15:57:22;49.68;48.36;51.75;;
58197;Laerm;43999;51.660;5.616;2023-09-19T16:00:12;49.68;48.26;51.30;;
58197;Laerm;43999;51.660;5.616;2023-09-19T16:03:04;49.67;48.40;51.55;;
58197;Laerm;43999;51.660;5.616;2023-09-19T16:05:52;49.68;48.29;51.51;;
58197;Laerm;43999;51.660;5.616;2023-09-19T16:08:48;49.67;48.02;51.17;;
58197;Laerm;43999;51.660;5.616;2023-09-19T16:11:37;49.70;48.48;51.22;;
58197;Laerm;43999;51.660;5.616;2023-09-19T16:14:24;49.68;48.29;51.64;;
58197;Laerm;43999;51.660;5.616;2023-09-19T16:17:14;49.69;48.49;51.50;;
58197;Laerm;43999;51.660;5.616;2023-09-19T16:20:03;49.66;48.34;51.19;;
58197;Laerm;43999;51.660;5.616;2023-09-19T16:22:51;49.68;48.03;51.32;;